Time;durP1;ratioP1;P1;durP2;ratioP2;P2;SDS_P1;SDS_P2;PMS_P1;PMS_P2;Temp;Humidity;BMP_temperature;BMP_pressure;BME280_temperature;BME280_humidity;BME280_pressure;Samples;Min_cycle;Max_cycle;Signal;HPM_P1;HPM_P2
2021/09/02 00:02:05;;;;;;;6.57;2.10;;;;;;;;;;5090306;28;20077;-64
2021/09/02 00:04:32;;;;;;;96.10;8.30;;;;;;;;;;5076031;28;20435;-66
2021/09/02 00:06:59;;;;;;;11.07;2.27;;;;;;;;;;5070312;28;20055;-66
2021/09/02 00:09:26;;;;;;;17.50;3.20;;;;;;;;;;5071087;28;20024;-63
2021/09/02 00:11:53;;;;;;;7.77;1.80;;;;;;;;;;5074869;28;20099;-62
2021/09/02 00:14:20;;;;;;;5.60;1.73;;;;;;;;;;5074542;28;20040;-62
2021/09/02 00:16:48;;;;;;;103.97;9.57;;;;;;;;;;5074827;28;20020;-64
2021/09/02 00:19:15;;;;;;;858.53;64.20;;;;;;;;;;5086051;28;20048;-63
2021/09/02 00:21:42;;;;;;;185.10;17.33;;;;;;;;;;5093608;28;20016;-62
2021/09/02 00:24:09;;;;;;;4.07;1.43;;;;;;;;;;5090062;28;20024;-62
2021/09/02 00:26:36;;;;;;;7.10;2.27;;;;;;;;;;5089928;28;20023;-62
2021/09/02 00:29:03;;;;;;;100.10;10.53;;;;;;;;;;5090046;28;20082;-61
2021/09/02 00:31:30;;;;;;;736.60;54.40;;;;;;;;;;5089020;28;20050;-60
2021/09/02 00:33:56;;;;;;;678.30;53.93;;;;;;;;;;5092893;28;20043;-61
2021/09/02 00:36:23;;;;;;;52.87;5.60;;;;;;;;;;5094717;28;20104;-61
2021/09/02 00:38:50;;;;;;;625.83;40.83;;;;;;;;;;5094410;28;20020;-64
2021/09/02 00:41:17;;;;;;;8.33;2.30;;;;;;;;;;5094650;28;20080;-62
2021/09/02 00:43:44;;;;;;;487.87;34.03;;;;;;;;;;5094213;28;20036;-61
2021/09/02 00:46:11;;;;;;;9.40;2.83;;;;;;;;;;5074106;28;20024;-61
2021/09/02 00:48:38;;;;;;;6.53;2.20;;;;;;;;;;5069158;28;20581;-65
2021/09/02 00:51:05;;;;;;;5.80;2.70;;;;;;;;;;5070199;28;20119;-64
2021/09/02 00:53:32;;;;;;;187.23;14.87;;;;;;;;;;5069389;28;20483;-64
2021/09/02 00:55:59;;;;;;;29.27;4.23;;;;;;;;;;5073318;28;20028;-63
2021/09/02 00:58:26;;;;;;;99.37;8.93;;;;;;;;;;5073651;28;20505;-61
2021/09/02 01:00:53;;;;;;;506.43;35.33;;;;;;;;;;5074135;28;20028;-64
2021/09/02 01:03:20;;;;;;;247.53;15.77;;;;;;;;;;5074107;28;20141;-63
2021/09/02 01:05:48;;;;;;;127.20;12.67;;;;;;;;;;5087081;28;20028;-62
2021/09/02 01:08:15;;;;;;;110.63;11.27;;;;;;;;;;5089792;28;20024;-61
2021/09/02 01:10:42;;;;;;;668.50;50.57;;;;;;;;;;5073896;28;20095;-63
2021/09/02 01:13:09;;;;;;;413.17;32.10;;;;;;;;;;5068781;28;20031;-63
2021/09/02 01:15:36;;;;;;;550.90;45.93;;;;;;;;;;5068472;28;20039;-60
2021/09/02 01:18:02;;;;;;;478.07;38.13;;;;;;;;;;5071687;28;20028;-61
2021/09/02 01:20:30;;;;;;;319.17;26.53;;;;;;;;;;5073610;28;20020;-61
2021/09/02 01:22:58;;;;;;;48.30;5.20;;;;;;;;;;5073580;28;20025;-61
2021/09/02 01:25:26;;;;;;;24.60;3.53;;;;;;;;;;5073577;28;20029;-62
2021/09/02 01:27:59;;;;;;;164.50;19.13;;;;;;;;;;5073526;28;20056;-62
2021/09/02 01:30:26;;;;;;;925.73;79.43;;;;;;;;;;5070127;28;20463;-61
2021/09/02 01:32:54;;;;;;;909.33;68.43;;;;;;;;;;5086899;28;20054;-61
2021/09/02 01:35:22;;;;;;;107.20;8.40;;;;;;;;;;5088663;28;20040;-62
2021/09/02 01:37:50;;;;;;;244.53;17.20;;;;;;;;;;5070584;28;20926;-61
2021/09/02 01:40:26;;;;;;;8.97;2.17;;;;;;;;;;5091141;28;20016;-61
2021/09/02 01:42:52;;;;;;;3.43;1.93;;;;;;;;;;5093166;28;20061;-61
2021/09/02 01:45:20;;;;;;;72.63;6.93;;;;;;;;;;5093344;28;20030;-61
2021/09/02 01:47:47;;;;;;;11.03;2.37;;;;;;;;;;5093379;28;20413;-61
2021/09/02 01:50:21;;;;;;;5.33;2.27;;;;;;;;;;5093239;28;20414;-61
2021/09/02 01:52:48;;;;;;;4.97;2.07;;;;;;;;;;5089866;28;20081;-61
2021/09/02 01:55:14;;;;;;;14.63;3.00;;;;;;;;;;5088392;28;20048;-63
2021/09/02 01:57:42;;;;;;;8.10;2.80;;;;;;;;;;5082621;28;20039;-61
2021/09/02 02:00:11;;;;;;;5.37;2.20;;;;;;;;;;5067979;28;20473;-61
2021/09/02 02:02:37;;;;;;;8.37;2.70;;;;;;;;;;5070178;28;20557;-60
2021/09/02 02:05:05;;;;;;;6.97;2.47;;;;;;;;;;5072781;28;20051;-61
2021/09/02 02:07:32;;;;;;;7.93;2.63;;;;;;;;;;5072837;28;20024;-60
2021/09/02 02:09:58;;;;;;;5.07;2.30;;;;;;;;;;5072159;28;20418;-61
2021/09/02 02:12:25;;;;;;;4.50;2.47;;;;;;;;;;5072822;28;20024;-60
2021/09/02 02:14:52;;;;;;;4.63;2.17;;;;;;;;;;5069978;28;20513;-61
2021/09/02 02:17:19;;;;;;;5.43;2.23;;;;;;;;;;5067866;28;20105;-60
2021/09/02 02:19:45;;;;;;;4.93;2.17;;;;;;;;;;5067639;28;20479;-60
2021/09/02 02:22:12;;;;;;;5.97;2.93;;;;;;;;;;5067521;28;20028;-61
2021/09/02 02:24:39;;;;;;;6.33;2.67;;;;;;;;;;5078210;28;20483;-60
2021/09/02 02:27:06;;;;;;;6.33;2.60;;;;;;;;;;5092838;28;20016;-60
2021/09/02 02:29:33;;;;;;;6.63;2.80;;;;;;;;;;5092552;28;20101;-60
2021/09/02 02:32:00;;;;;;;13.20;2.87;;;;;;;;;;5092620;28;20032;-60
2021/09/02 02:34:26;;;;;;;8.63;2.67;;;;;;;;;;5092513;28;20036;-60
2021/09/02 02:36:53;;;;;;;7.33;3.27;;;;;;;;;;5091414;28;20441;-61
2021/09/02 02:39:20;;;;;;;6.13;2.73;;;;;;;;;;5088172;28;20390;-60
2021/09/02 02:41:47;;;;;;;6.07;3.43;;;;;;;;;;5087604;28;20028;-60
2021/09/02 02:44:14;;;;;;;6.03;2.77;;;;;;;;;;5087478;28;20067;-60
2021/09/02 02:46:41;;;;;;;6.07;2.70;;;;;;;;;;5087490;28;20496;-60
2021/09/02 02:49:07;;;;;;;6.60;2.43;;;;;;;;;;5092300;28;20020;-60
2021/09/02 02:51:37;;;;;;;8.90;2.80;;;;;;;;;;5078379;28;20033;-60
2021/09/02 02:54:04;;;;;;;4.93;2.70;;;;;;;;;;5073073;28;20029;-60
2021/09/02 02:56:31;;;;;;;19.60;3.40;;;;;;;;;;5077505;28;20029;-61
2021/09/02 02:58:58;;;;;;;4.57;2.10;;;;;;;;;;5096519;28;20479;-60
2021/09/02 03:01:24;;;;;;;4.20;2.20;;;;;;;;;;5091537;28;21614;-60
2021/09/02 03:03:51;;;;;;;7.83;3.00;;;;;;;;;;5091626;28;20056;-60
2021/09/02 03:06:18;;;;;;;4.00;2.53;;;;;;;;;;5091296;28;20469;-60
2021/09/02 03:08:45;;;;;;;5.40;2.37;;;;;;;;;;5091323;28;20028;-60
2021/09/02 03:11:12;;;;;;;5.40;2.40;;;;;;;;;;5076754;28;20024;-60
2021/09/02 03:13:40;;;;;;;4.40;2.10;;;;;;;;;;5076063;28;20058;-60
2021/09/02 03:16:07;;;;;;;6.47;2.47;;;;;;;;;;5075915;28;20045;-60
2021/09/02 03:18:34;;;;;;;37.83;4.13;;;;;;;;;;5075994;28;20430;-60
2021/09/02 03:21:01;;;;;;;21.57;3.37;;;;;;;;;;5075747;28;20021;-60
2021/09/02 03:23:27;;;;;;;4.70;2.33;;;;;;;;;;5071888;28;20060;-60
2021/09/02 03:25:54;;;;;;;4.97;2.27;;;;;;;;;;5070809;28;20081;-60
2021/09/02 03:28:21;;;;;;;4.93;2.53;;;;;;;;;;5070802;28;20036;-60
2021/09/02 03:30:48;;;;;;;7.00;2.60;;;;;;;;;;5070607;28;20016;-60
2021/09/02 03:33:15;;;;;;;4.30;2.00;;;;;;;;;;5074257;28;20024;-60
2021/09/02 03:35:42;;;;;;;6.87;2.50;;;;;;;;;;5075610;28;20032;-60
2021/09/02 03:38:09;;;;;;;7.27;2.83;;;;;;;;;;5075481;28;20031;-60
2021/09/02 03:40:36;;;;;;;6.70;2.53;;;;;;;;;;5075272;28;20031;-60
2021/09/02 03:43:02;;;;;;;7.13;2.40;;;;;;;;;;5075989;28;20029;-61
2021/09/02 03:45:29;;;;;;;4.70;2.10;;;;;;;;;;5071809;28;20024;-60
2021/09/02 03:47:56;;;;;;;5.80;2.40;;;;;;;;;;5070352;28;20040;-60
2021/09/02 03:50:23;;;;;;;5.57;2.33;;;;;;;;;;5070533;28;20032;-60
2021/09/02 03:52:49;;;;;;;5.73;2.23;;;;;;;;;;5070458;28;20479;-60
2021/09/02 03:55:16;;;;;;;4.27;2.27;;;;;;;;;;5072780;28;20086;-60
2021/09/02 03:57:43;;;;;;;4.43;2.10;;;;;;;;;;5075085;28;20056;-60
2021/09/02 04:00:11;;;;;;;4.97;2.27;;;;;;;;;;5075280;28;20138;-60
2021/09/02 04:02:39;;;;;;;3.57;2.00;;;;;;;;;;5075198;28;20031;-60
2021/09/02 04:05:07;;;;;;;4.03;2.27;;;;;;;;;;5075158;28;20028;-61
2021/09/02 04:07:34;;;;;;;4.73;2.20;;;;;;;;;;5072140;28;20032;-60
2021/09/02 04:10:01;;;;;;;7.13;2.23;;;;;;;;;;5070177;28;20028;-60
2021/09/02 04:12:27;;;;;;;4.07;2.40;;;;;;;;;;5069822;28;20078;-60
2021/09/02 04:14:55;;;;;;;4.07;2.00;;;;;;;;;;5069771;28;20551;-60
2021/09/02 04:17:21;;;;;;;4.97;2.10;;;;;;;;;;5071893;28;20027;-60
2021/09/02 04:19:48;;;;;;;4.40;2.57;;;;;;;;;;5074455;28;20490;-60
2021/09/02 04:22:15;;;;;;;3.07;1.70;;;;;;;;;;5075191;28;20417;-60
2021/09/02 04:24:42;;;;;;;5.60;2.13;;;;;;;;;;5074951;28;20519;-60
2021/09/02 04:27:11;;;;;;;4.53;2.00;;;;;;;;;;5074451;28;20035;-61
2021/09/02 04:29:38;;;;;;;8.30;2.00;;;;;;;;;;5072467;28;20111;-60
2021/09/02 04:32:05;;;;;;;5.87;2.43;;;;;;;;;;5069520;28;20021;-60
2021/09/02 04:34:32;;;;;;;5.17;2.40;;;;;;;;;;5069563;28;20128;-61
2021/09/02 04:36:59;;;;;;;4.63;2.07;;;;;;;;;;5070259;28;20059;-60
2021/09/02 04:39:25;;;;;;;4.03;2.07;;;;;;;;;;5070773;28;20052;-60
2021/09/02 04:41:52;;;;;;;4.57;2.30;;;;;;;;;;5074490;28;20025;-61
2021/09/02 04:44:19;;;;;;;6.53;2.43;;;;;;;;;;5074346;28;20036;-60
2021/09/02 04:46:46;;;;;;;6.70;2.53;;;;;;;;;;5074368;28;20036;-60
2021/09/02 04:49:12;;;;;;;2.63;1.63;;;;;;;;;;5074016;28;20093;-60
2021/09/02 04:51:39;;;;;;;4.93;2.27;;;;;;;;;;5073006;28;20036;-61
2021/09/02 04:54:06;;;;;;;3.97;1.93;;;;;;;;;;5068659;28;20508;-60
2021/09/02 04:56:33;;;;;;;4.73;2.10;;;;;;;;;;5069135;28;20488;-60
2021/09/02 04:59:00;;;;;;;6.00;2.17;;;;;;;;;;5069121;28;20028;-60
2021/09/02 05:01:26;;;;;;;4.33;2.17;;;;;;;;;;5069179;28;20028;-60
2021/09/02 05:03:53;;;;;;;6.90;2.53;;;;;;;;;;5092117;28;20490;-60
2021/09/02 05:06:20;;;;;;;4.10;1.97;;;;;;;;;;5093968;28;20028;-60
2021/09/02 05:08:47;;;;;;;4.47;2.23;;;;;;;;;;5094137;28;20032;-60
2021/09/02 05:11:13;;;;;;;5.63;2.37;;;;;;;;;;5074514;28;20016;-60
2021/09/02 05:13:40;;;;;;;4.73;2.20;;;;;;;;;;5073332;28;20054;-60
2021/09/02 05:16:06;;;;;;;7.63;2.53;;;;;;;;;;5068597;28;20036;-60
2021/09/02 05:18:33;;;;;;;5.50;2.40;;;;;;;;;;5068275;28;20044;-60
2021/09/02 05:21:00;;;;;;;6.30;2.53;;;;;;;;;;5068617;28;20056;-60
2021/09/02 05:23:27;;;;;;;5.40;2.30;;;;;;;;;;5068331;28;20038;-60
2021/09/02 05:25:54;;;;;;;6.47;3.13;;;;;;;;;;5072934;28;20472;-59
2021/09/02 05:28:22;;;;;;;5.37;2.00;;;;;;;;;;5075326;28;20087;-59
2021/09/02 05:30:48;;;;;;;5.73;2.73;;;;;;;;;;5093372;28;20081;-60
2021/09/02 05:33:15;;;;;;;9.60;2.87;;;;;;;;;;5093678;28;20046;-59
2021/09/02 05:35:42;;;;;;;6.33;2.43;;;;;;;;;;5093736;28;20154;-59
2021/09/02 05:38:12;;;;;;;3.47;1.80;;;;;;;;;;5089007;28;20107;-60
2021/09/02 05:40:39;;;;;;;10.50;2.63;;;;;;;;;;5088534;28;20506;-60
2021/09/02 05:43:05;;;;;;;6.03;2.10;;;;;;;;;;5088507;28;20024;-61
2021/09/02 05:45:32;;;;;;;14.80;3.13;;;;;;;;;;5088465;28;20024;-62
2021/09/02 05:47:59;;;;;;;11.87;2.90;;;;;;;;;;5091491;28;20466;-63
2021/09/02 05:50:27;;;;;;;15.70;3.37;;;;;;;;;;5093329;28;20140;-63
2021/09/02 05:52:54;;;;;;;8.20;3.83;;;;;;;;;;5093521;28;20067;-61
2021/09/02 05:55:21;;;;;;;5.83;2.50;;;;;;;;;;5085900;28;20039;-61
2021/09/02 05:57:48;;;;;;;35.20;4.83;;;;;;;;;;5071728;28;20017;-61
2021/09/02 06:00:15;;;;;;;5.80;2.77;;;;;;;;;;5067145;28;20017;-61
2021/09/02 06:02:42;;;;;;;4.10;2.10;;;;;;;;;;5071040;28;20437;-61
2021/09/02 06:05:09;;;;;;;5.83;3.17;;;;;;;;;;5073061;28;20109;-61
2021/09/02 06:07:35;;;;;;;9.40;3.10;;;;;;;;;;5066341;28;20388;-60
2021/09/02 06:10:02;;;;;;;4.80;2.40;;;;;;;;;;5069042;28;20661;-61
2021/09/02 06:12:29;;;;;;;8.57;2.67;;;;;;;;;;5071169;28;20020;-61
2021/09/02 06:14:56;;;;;;;6.47;2.57;;;;;;;;;;5072048;28;20028;-61
2021/09/02 06:17:23;;;;;;;6.17;2.23;;;;;;;;;;5072527;28;20025;-61
2021/09/02 06:19:49;;;;;;;3.70;1.70;;;;;;;;;;5072685;28;20029;-60
2021/09/02 06:22:16;;;;;;;4.57;1.80;;;;;;;;;;5069490;28;20027;-61
2021/09/02 06:24:43;;;;;;;5.00;2.10;;;;;;;;;;5067081;28;20086;-60
2021/09/02 06:27:10;;;;;;;4.13;1.70;;;;;;;;;;5067183;28;20016;-61
2021/09/02 06:29:36;;;;;;;8.07;1.70;;;;;;;;;;5066433;28;20082;-61
2021/09/02 06:32:03;;;;;;;3.93;1.93;;;;;;;;;;5069219;28;20082;-60
2021/09/02 06:34:30;;;;;;;4.73;1.50;;;;;;;;;;5072461;28;20361;-61
2021/09/02 06:36:57;;;;;;;6.43;2.00;;;;;;;;;;5072419;28;20400;-60
2021/09/02 06:39:24;;;;;;;3.10;1.37;;;;;;;;;;5072242;28;20055;-61
2021/09/02 06:41:50;;;;;;;4.17;1.70;;;;;;;;;;5071961;28;20078;-60
2021/09/02 06:44:17;;;;;;;5.47;1.97;;;;;;;;;;5070017;28;20028;-61
2021/09/02 06:46:44;;;;;;;7.53;1.70;;;;;;;;;;5067254;28;20029;-62
2021/09/02 06:49:11;;;;;;;7.07;2.20;;;;;;;;;;5066934;28;20502;-60
2021/09/02 06:51:39;;;;;;;5.43;1.70;;;;;;;;;;5067034;28;20060;-61
2021/09/02 06:54:06;;;;;;;7.00;1.83;;;;;;;;;;5068252;28;20029;-60
2021/09/02 06:56:33;;;;;;;4.20;1.40;;;;;;;;;;5071946;28;20047;-61
2021/09/02 06:58:59;;;;;;;4.93;1.57;;;;;;;;;;5071749;28;20020;-61
2021/09/02 07:01:26;;;;;;;5.67;1.80;;;;;;;;;;5071943;28;20031;-61
2021/09/02 07:03:53;;;;;;;4.67;1.70;;;;;;;;;;5084345;28;20032;-61
2021/09/02 07:06:20;;;;;;;5.93;1.33;;;;;;;;;;5090701;28;20305;-60
2021/09/02 07:08:47;;;;;;;2.90;1.10;;;;;;;;;;5086957;28;20020;-60
2021/09/02 07:11:14;;;;;;;5.07;1.60;;;;;;;;;;5086872;28;20032;-61
2021/09/02 07:13:41;;;;;;;5.77;2.07;;;;;;;;;;5086960;28;20418;-60
2021/09/02 07:16:07;;;;;;;4.17;1.90;;;;;;;;;;5087237;28;20352;-60
2021/09/02 07:18:34;;;;;;;2.47;1.40;;;;;;;;;;5091942;28;20020;-60
2021/09/02 07:21:01;;;;;;;3.37;1.83;;;;;;;;;;5092234;28;20054;-61
2021/09/02 07:23:28;;;;;;;1.97;1.10;;;;;;;;;;5091987;28;20024;-61
2021/09/02 07:25:54;;;;;;;6.80;1.50;;;;;;;;;;5092164;28;20016;-60
2021/09/02 07:28:21;;;;;;;5.90;1.30;;;;;;;;;;5091577;28;20526;-61
2021/09/02 07:30:48;;;;;;;3.03;1.00;;;;;;;;;;5084862;28;20111;-60
2021/09/02 07:33:15;;;;;;;4.03;1.43;;;;;;;;;;5066761;28;20090;-60
2021/09/02 07:35:42;;;;;;;4.20;1.43;;;;;;;;;;5066166;28;20028;-61
2021/09/02 07:38:09;;;;;;;3.10;1.50;;;;;;;;;;5066612;28;20020;-61
2021/09/02 07:40:36;;;;;;;5.57;1.50;;;;;;;;;;5072692;28;20028;-61
2021/09/02 07:43:03;;;;;;;4.70;1.53;;;;;;;;;;5075437;28;20119;-61
2021/09/02 07:45:30;;;;;;;3.23;1.33;;;;;;;;;;5075442;28;20062;-61
2021/09/02 07:47:57;;;;;;;4.77;1.50;;;;;;;;;;5075334;28;20060;-61
2021/09/02 07:50:23;;;;;;;6.20;1.90;;;;;;;;;;5075258;28;20078;-61
2021/09/02 07:52:50;;;;;;;3.93;2.00;;;;;;;;;;5069786;28;20028;-61
2021/09/02 07:55:17;;;;;;;5.40;2.30;;;;;;;;;;5069943;28;20119;-61
2021/09/02 07:57:47;;;;;;;5.43;1.73;;;;;;;;;;5069780;28;20025;-60
2021/09/02 08:00:15;;;;;;;2.80;1.60;;;;;;;;;;5080929;28;20081;-60
2021/09/02 08:02:41;;;;;;;5.43;1.63;;;;;;;;;;5094408;28;20020;-60
2021/09/02 08:05:09;;;;;;;3.87;1.73;;;;;;;;;;5095356;28;20020;-60
2021/09/02 08:07:46;;;;;;;5.43;1.50;;;;;;;;;;5094812;28;20023;-60
2021/09/02 08:10:12;;;;;;;3.07;1.60;;;;;;;;;;5095288;28;20502;-60
2021/09/02 08:12:39;;;;;;;4.13;1.50;;;;;;;;;;5095101;28;20025;-60
2021/09/02 08:15:06;;;;;;;4.83;1.70;;;;;;;;;;5090117;28;20063;-60
2021/09/02 08:17:33;;;;;;;5.67;1.60;;;;;;;;;;5089672;28;20475;-60
2021/09/02 08:20:00;;;;;;;2.63;1.33;;;;;;;;;;5089907;28;20108;-61
2021/09/02 08:22:27;;;;;;;4.07;1.70;;;;;;;;;;5089397;28;20028;-60
2021/09/02 08:24:54;;;;;;;2.43;1.30;;;;;;;;;;5093497;28;20081;-61
2021/09/02 08:27:20;;;;;;;2.53;1.40;;;;;;;;;;5094979;28;20545;-60
2021/09/02 08:29:48;;;;;;;5.47;1.60;;;;;;;;;;5078938;28;20485;-60
2021/09/02 08:32:14;;;;;;;3.87;1.50;;;;;;;;;;5074368;28;20028;-60
2021/09/02 08:34:41;;;;;;;3.80;1.97;;;;;;;;;;5074432;28;20024;-60
2021/09/02 08:37:08;;;;;;;3.83;1.70;;;;;;;;;;5070642;28;20021;-60
2021/09/02 08:39:35;;;;;;;4.37;1.77;;;;;;;;;;5069147;28;20036;-60
2021/09/02 08:42:03;;;;;;;3.40;1.33;;;;;;;;;;5069106;28;20103;-60
2021/09/02 08:44:30;;;;;;;3.83;1.73;;;;;;;;;;5069246;28;20032;-60
2021/09/02 08:46:57;;;;;;;5.47;1.60;;;;;;;;;;5072144;28;20060;-60
2021/09/02 08:49:24;;;;;;;4.30;1.40;;;;;;;;;;5074130;28;20031;-60
2021/09/02 08:51:52;;;;;;;5.03;1.43;;;;;;;;;;5073286;28;20024;-60
2021/09/02 08:54:21;;;;;;;3.10;1.20;;;;;;;;;;5073953;28;20013;-60
2021/09/02 08:56:48;;;;;;;7.93;1.23;;;;;;;;;;5075350;28;20573;-60
2021/09/02 08:59:15;;;;;;;4.90;0.90;;;;;;;;;;5090974;28;20078;-61
2021/09/02 09:01:41;;;;;;;4.53;1.00;;;;;;;;;;5089051;28;20024;-61
2021/09/02 09:04:12;;;;;;;4.43;0.90;;;;;;;;;;5087159;28;20020;-60
2021/09/02 09:06:41;;;;;;;2.90;0.80;;;;;;;;;;5088841;28;20371;-61
2021/09/02 09:09:14;;;;;;;1.90;0.80;;;;;;;;;;5091505;28;20035;-60
2021/09/02 09:11:51;;;;;;;2.47;1.10;;;;;;;;;;5093628;28;20024;-60
2021/09/02 09:14:30;;;;;;;4.30;1.50;;;;;;;;;;5094066;28;20023;-60
2021/09/02 09:16:58;;;;;;;5.23;1.00;;;;;;;;;;5093864;28;20039;-60
2021/09/02 09:19:35;;;;;;;1.63;0.80;;;;;;;;;;5093943;28;20013;-60
2021/09/02 09:22:02;;;;;;;5.87;1.17;;;;;;;;;;5089471;28;20028;-60
2021/09/02 09:24:45;;;;;;;2.17;1.23;;;;;;;;;;5088452;28;20030;-60
2021/09/02 09:27:11;;;;;;;7.17;1.40;;;;;;;;;;5065961;28;20029;-60
2021/09/02 09:29:38;;;;;;;3.93;1.37;;;;;;;;;;5068245;28;20119;-60
2021/09/02 09:32:16;;;;;;;2.33;1.17;;;;;;;;;;5071947;28;20410;-60
2021/09/02 09:34:50;;;;;;;3.60;0.90;;;;;;;;;;5073214;28;20493;-60
2021/09/02 09:37:17;;;;;;;4.27;1.30;;;;;;;;;;5073240;28;20058;-60
2021/09/02 09:39:44;;;;;;;3.13;0.90;;;;;;;;;;5073312;28;20031;-60
2021/09/02 09:42:11;;;;;;;3.93;1.00;;;;;;;;;;5073121;28;20036;-60
2021/09/02 09:44:40;;;;;;;1.50;0.80;;;;;;;;;;5068612;28;20127;-60
2021/09/02 09:47:09;;;;;;;4.33;0.73;;;;;;;;;;5067758;28;20111;-60
2021/09/02 09:49:53;;;;;;;4.03;0.80;;;;;;;;;;5067738;28;20067;-60
2021/09/02 09:52:29;;;;;;;4.10;1.93;;;;;;;;;;5067747;28;20035;-60
2021/09/02 09:55:08;;;;;;;1.33;0.90;;;;;;;;;;5088727;28;20039;-60
2021/09/02 09:57:35;;;;;;;2.73;0.90;;;;;;;;;;5092948;28;20042;-61
2021/09/02 10:00:07;;;;;;;1.63;0.67;;;;;;;;;;5093154;28;20020;-60
2021/09/02 10:02:36;;;;;;;1.20;0.60;;;;;;;;;;5092760;28;20020;-60
2021/09/02 10:05:07;;;;;;;3.20;0.80;;;;;;;;;;5092653;28;20055;-61
2021/09/02 10:07:34;;;;;;;6.57;1.03;;;;;;;;;;5087620;28;20059;-60
2021/09/02 10:10:02;;;;;;;2.13;0.77;;;;;;;;;;5087390;28;20421;-60
2021/09/02 10:12:34;;;;;;;3.77;0.97;;;;;;;;;;5087751;28;20410;-60
2021/09/02 10:15:05;;;;;;;5.27;0.80;;;;;;;;;;5087409;28;20344;-60
2021/09/02 10:17:34;;;;;;;2.63;0.80;;;;;;;;;;5092883;28;20028;-60
2021/09/02 10:20:04;;;;;;;3.77;0.57;;;;;;;;;;5092782;28;20031;-61
2021/09/02 10:22:34;;;;;;;2.90;0.70;;;;;;;;;;5081961;28;20032;-60
2021/09/02 10:25:00;;;;;;;3.27;0.50;;;;;;;;;;5072470;28;20009;-60
2021/09/02 10:27:27;;;;;;;4.33;0.90;;;;;;;;;;5072237;28;20036;-60
2021/09/02 10:29:54;;;;;;;1.47;0.70;;;;;;;;;;5067084;28;20379;-60
2021/09/02 10:32:24;;;;;;;1.67;0.70;;;;;;;;;;5067090;28;20071;-60
2021/09/02 10:34:51;;;;;;;1.53;0.70;;;;;;;;;;5067122;28;20093;-60
2021/09/02 10:37:37;;;;;;;1.33;0.60;;;;;;;;;;5067019;28;20039;-60
2021/09/02 10:40:16;;;;;;;3.17;1.08;;;;;;;;;;5072272;28;20070;-60
2021/09/02 10:42:47;;;;;;;1.40;0.53;;;;;;;;;;5072278;28;20024;-60
2021/09/02 10:45:27;;;;;;;1.70;0.73;;;;;;;;;;5072133;28;20503;-60
2021/09/02 10:47:54;;;;;;;7.57;0.77;;;;;;;;;;5072276;28;20024;-60
2021/09/02 10:50:23;;;;;;;0.80;0.60;;;;;;;;;;5073631;28;20047;-60
2021/09/02 10:52:50;;;;;;;1.93;0.70;;;;;;;;;;5087047;28;20481;-61
2021/09/02 10:55:26;;;;;;;1.67;0.50;;;;;;;;;;5086919;28;20051;-60
2021/09/02 10:57:53;;;;;;;1.53;0.50;;;;;;;;;;5087063;28;20469;-60
2021/09/02 11:00:35;;;;;;;3.00;0.80;;;;;;;;;;5088099;28;20047;-60
2021/09/02 11:03:14;;;;;;;1.00;0.50;;;;;;;;;;5092253;28;20091;-60
2021/09/02 11:05:42;;;;;;;2.67;0.67;;;;;;;;;;5092132;28;20379;-60
2021/09/02 11:08:09;;;;;;;4.77;0.53;;;;;;;;;;5091991;28;20085;-60
2021/09/02 11:10:36;;;;;;;8.50;1.57;;;;;;;;;;5092084;28;20021;-60
2021/09/02 11:13:04;;;;;;;2.47;0.67;;;;;;;;;;5089874;28;20055;-60
2021/09/02 11:15:32;;;;;;;1.33;0.60;;;;;;;;;;5088512;28;20036;-60
2021/09/02 11:17:59;;;;;;;0.50;0.50;;;;;;;;;;5091650;28;20091;-60
2021/09/02 11:20:28;;;;;;;1.10;0.60;;;;;;;;;;5073894;28;20025;-60
2021/09/02 11:23:08;;;;;;;0.70;0.40;;;;;;;;;;5072077;28;20036;-60
2021/09/02 11:25:42;;;;;;;3.40;0.60;;;;;;;;;;5075781;28;20479;-60
2021/09/02 11:28:08;;;;;;;1.90;0.63;;;;;;;;;;5075754;28;20160;-60
2021/09/02 11:30:35;;;;;;;2.30;0.70;;;;;;;;;;5075824;28;20033;-60
2021/09/02 11:33:03;;;;;;;7.27;0.50;;;;;;;;;;5075762;28;20028;-60
2021/09/02 11:35:30;;;;;;;2.33;0.50;;;;;;;;;;5073226;28;20040;-61
2021/09/02 11:37:57;;;;;;;6.67;0.93;;;;;;;;;;5070242;28;20028;-60
2021/09/02 11:40:28;;;;;;;1.67;0.70;;;;;;;;;;5070229;28;20036;-60
2021/09/02 11:42:56;;;;;;;4.97;0.83;;;;;;;;;;5070325;28;20024;-60
2021/09/02 11:45:23;;;;;;;0.77;0.47;;;;;;;;;;5072011;28;20073;-60
2021/09/02 11:47:50;;;;;;;1.80;0.60;;;;;;;;;;5085700;28;20420;-61
2021/09/02 11:50:18;;;;;;;3.10;0.80;;;;;;;;;;5095464;28;20024;-60
2021/09/02 11:52:46;;;;;;;2.90;0.80;;;;;;;;;;5095288;28;20016;-60
2021/09/02 11:55:32;;;;;;;1.47;1.00;;;;;;;;;;5095384;28;20045;-60
2021/09/02 11:58:00;;;;;;;1.73;0.70;;;;;;;;;;5092758;28;20034;-61
2021/09/02 12:00:28;;;;;;;2.33;0.67;;;;;;;;;;5090393;28;20024;-60
2021/09/02 12:02:56;;;;;;;3.70;0.53;;;;;;;;;;5090139;28;20093;-60
2021/09/02 12:05:26;;;;;;;1.97;0.80;;;;;;;;;;5089819;28;20032;-60
2021/09/02 12:07:53;;;;;;;2.67;0.77;;;;;;;;;;5091996;28;20420;-60
2021/09/02 12:10:21;;;;;;;4.90;0.70;;;;;;;;;;5095096;28;20085;-60
2021/09/02 12:12:48;;;;;;;5.77;0.70;;;;;;;;;;5095113;28;20039;-60
2021/09/02 12:15:30;;;;;;;2.43;0.70;;;;;;;;;;5091947;28;20035;-60
2021/09/02 12:18:10;;;;;;;3.30;0.60;;;;;;;;;;5074467;28;20082;-59
2021/09/02 12:20:40;;;;;;;1.97;0.70;;;;;;;;;;5071835;28;20024;-60
2021/09/02 12:23:17;;;;;;;5.80;0.80;;;;;;;;;;5069758;28;20025;-60
2021/09/02 12:25:57;;;;;;;0.93;0.70;;;;;;;;;;5069460;28;20126;-60
2021/09/02 12:28:31;;;;;;;2.17;1.00;;;;;;;;;;5068691;28;20027;-60
2021/09/02 12:30:58;;;;;;;3.23;0.77;;;;;;;;;;5072980;28;20040;-60
2021/09/02 12:33:25;;;;;;;3.43;0.70;;;;;;;;;;5074375;28;20017;-60
2021/09/02 12:35:52;;;;;;;1.93;0.70;;;;;;;;;;5074463;28;20029;-60
2021/09/02 12:38:34;;;;;;;2.93;0.93;;;;;;;;;;5074351;28;20024;-60
2021/09/02 12:41:11;;;;;;;3.40;1.27;;;;;;;;;;5074341;28;20032;-60
2021/09/02 12:43:38;;;;;;;1.90;0.90;;;;;;;;;;5074460;28;20028;-60
2021/09/02 12:46:05;;;;;;;5.97;1.00;;;;;;;;;;5089365;28;20031;-60
2021/09/02 12:48:31;;;;;;;2.40;1.20;;;;;;;;;;5089239;28;20035;-60
2021/09/02 12:51:00;;;;;;;2.63;1.10;;;;;;;;;;5088728;28;20020;-61
2021/09/02 12:53:32;;;;;;;4.00;1.20;;;;;;;;;;5092915;28;20036;-60
2021/09/02 12:56:16;;;;;;;5.37;1.00;;;;;;;;;;5094245;28;20036;-60
2021/09/02 12:58:43;;;;;;;10.23;3.17;;;;;;;;;;5094332;28;20474;-60
2021/09/02 13:01:10;;;;;;;10.87;2.37;;;;;;;;;;5094120;28;20034;-60
2021/09/02 13:03:36;;;;;;;4.50;1.90;;;;;;;;;;5094141;28;20040;-60
2021/09/02 13:06:03;;;;;;;4.90;1.90;;;;;;;;;;5089333;28;20057;-60
2021/09/02 13:08:30;;;;;;;8.47;3.33;;;;;;;;;;5088942;28;20045;-60
2021/09/02 13:10:57;;;;;;;11.53;2.07;;;;;;;;;;5088817;28;20035;-60
2021/09/02 13:13:24;;;;;;;3.03;1.30;;;;;;;;;;5072992;28;20033;-60
2021/09/02 13:15:50;;;;;;;2.40;1.03;;;;;;;;;;5072179;28;20028;-60
2021/09/02 13:18:17;;;;;;;11.13;2.93;;;;;;;;;;5073561;28;20027;-60
2021/09/02 13:20:44;;;;;;;8.97;2.70;;;;;;;;;;5073545;28;20028;-60
2021/09/02 13:23:11;;;;;;;3.33;1.30;;;;;;;;;;5073446;28;20036;-60
2021/09/02 13:25:37;;;;;;;3.77;1.13;;;;;;;;;;5073783;28;20031;-60
2021/09/02 13:28:04;;;;;;;2.73;1.43;;;;;;;;;;5069750;28;20031;-60
2021/09/02 13:30:31;;;;;;;3.10;1.20;;;;;;;;;;5068250;28;20071;-60
2021/09/02 13:32:58;;;;;;;4.17;2.13;;;;;;;;;;5068134;28;20105;-60
2021/09/02 13:35:25;;;;;;;4.93;1.53;;;;;;;;;;5067889;28;20043;-60
2021/09/02 13:37:51;;;;;;;4.67;1.50;;;;;;;;;;5070520;28;20024;-60
2021/09/02 13:40:19;;;;;;;5.87;1.80;;;;;;;;;;5075568;28;20484;-61
2021/09/02 13:42:46;;;;;;;3.53;1.60;;;;;;;;;;5074177;28;20107;-60
2021/09/02 13:45:13;;;;;;;5.30;1.50;;;;;;;;;;5072956;28;20056;-61
2021/09/02 13:47:43;;;;;;;4.67;1.93;;;;;;;;;;5073133;28;20046;-61
2021/09/02 13:50:10;;;;;;;3.90;1.70;;;;;;;;;;5071085;28;20024;-61
2021/09/02 13:52:38;;;;;;;6.43;2.17;;;;;;;;;;5078858;28;20039;-61
2021/09/02 13:55:09;;;;;;;6.23;2.13;;;;;;;;;;5067953;28;20077;-61
2021/09/02 13:57:36;;;;;;;9.10;2.70;;;;;;;;;;5067723;28;20029;-61
2021/09/02 14:00:06;;;;;;;6.83;1.87;;;;;;;;;;5070158;28;20048;-61
2021/09/02 14:02:33;;;;;;;3.23;1.70;;;;;;;;;;5072987;28;20118;-61
2021/09/02 14:05:00;;;;;;;3.20;1.50;;;;;;;;;;5072853;28;20028;-61
2021/09/02 14:07:27;;;;;;;4.37;1.43;;;;;;;;;;5073825;28;20021;-61
2021/09/02 14:09:54;;;;;;;6.03;2.03;;;;;;;;;;5083913;28;20031;-61
2021/09/02 14:12:21;;;;;;;3.57;1.77;;;;;;;;;;5070319;28;20032;-61
2021/09/02 14:14:48;;;;;;;3.57;1.50;;;;;;;;;;5067560;28;20028;-61
2021/09/02 14:17:14;;;;;;;3.43;1.53;;;;;;;;;;5067501;28;20021;-61
2021/09/02 14:19:41;;;;;;;5.73;1.63;;;;;;;;;;5067788;28;20071;-61
2021/09/02 14:22:08;;;;;;;1.87;1.27;;;;;;;;;;5075037;28;20368;-61
2021/09/02 14:24:35;;;;;;;3.47;1.60;;;;;;;;;;5078697;28;20029;-61
2021/09/02 14:27:02;;;;;;;2.53;1.37;;;;;;;;;;5072160;28;20044;-61
2021/09/02 14:29:31;;;;;;;7.33;2.70;;;;;;;;;;5072286;28;20132;-61
2021/09/02 14:31:58;;;;;;;6.80;2.10;;;;;;;;;;5072526;28;20028;-61
2021/09/02 14:34:24;;;;;;;6.60;2.03;;;;;;;;;;5070964;28;20467;-60
2021/09/02 14:36:51;;;;;;;12.23;2.53;;;;;;;;;;5067283;28;20418;-61
2021/09/02 14:39:18;;;;;;;4.10;2.10;;;;;;;;;;5067429;28;20430;-61
2021/09/02 14:41:45;;;;;;;6.43;2.00;;;;;;;;;;5067491;28;20382;-61
2021/09/02 14:44:12;;;;;;;3.80;1.90;;;;;;;;;;5067886;28;20032;-61
2021/09/02 14:46:38;;;;;;;6.47;2.40;;;;;;;;;;5072320;28;20020;-63